Detalii statie SADELLI PRODCOM [00001D03]

Toti senzorii

Date Temperatura solului [C]Precipitatii [mm]Voltaj baterie [mV]Leaf Wetness [Min]HC Air temperature [C]HC Relative humidity [%]Punctul de roua [C]
medieminmaxsumaultimatimpmedieminmaxmediemediemin
2019-04-19 19:00:00 19.3 18.7 20 0 7128 17.91 16.81 18.76 0 0 0
2019-04-19 20:00:00 18 17.5 18.6 0 6766 15.22 13.78 16.54 0 0 0
2019-04-19 21:00:00 16.8 16.2 17.3 0 6766 12.35 10.9 13.73 0 0 0
2019-04-19 22:00:00 15.7 15.3 16.1 0 6748 10.43 9.54 11.26 0 0 0
2019-04-19 23:00:00 14.8 14.5 15.4 0 6728 9.25 7.42 10.41 0 0 0
2019-04-20 00:00:00 14 13.6 14.3 0 6718 8.08 7.13 8.53 0 0 0
2019-04-20 01:00:00 13.3 13 13.6 0 6718 6.9 5.73 7.94 0 0 0
2019-04-20 02:00:00 12.6 12.3 13 0 6708 5.11 3.44 7.22 0 0 0
2019-04-20 03:00:00 12 11.8 12.4 0 6688 3.99 3.17 4.57 0 0 0
2019-04-20 04:00:00 11.5 11.2 11.8 0 6688 2.8 2.09 3.45 0 0 0
2019-04-20 05:00:00 10.9 10.7 11.2 0 6668 2.36 1.87 3.78 3.45 0
2019-04-20 06:00:00 10.5 10.3 10.7 0 6678 1.41 0.91 1.85 56.91 -6.2 -7.3
2019-04-20 07:00:00 10.1 9.8 10.4 0 6738 2.69 1.51 4.92 0 0 0
2019-04-20 08:00:00 10.1 9.9 10.5 0 6864 8.03 5.58 10.48 0 0 0
2019-04-20 09:00:00 11.2 10.5 11.9 0 7108 13.05 11.24 14.35 0 0 0
2019-04-20 10:00:00 12.9 12.2 14 0 7206 16.62 14.56 18.89 0 0 0
2019-04-20 11:00:00 15.2 14.3 16.3 0 7206 18.07 17.06 19.51 4.91 0
2019-04-20 12:00:00 17.2 16.3 18 0 7196 19.22 18 20.84 11.31 -12.2 -17.2
2019-04-20 13:00:00 18.8 18.1 19.7 0 7196 19.91 18.18 22.31 17.49 -5.8 -9.4
2019-04-20 14:00:00 20.4 19.7 21.1 0 7196 20.57 18.79 22.04 20.95 -2.7 -4.6
2019-04-20 15:00:00 21.5 21.1 21.9 0 7196 19.98 18.88 21.8 22.09 -2.5 -3.5
2019-04-20 16:00:00 22.1 21.9 22.2 0 7196 20.74 19.89 22.84 25.54 0 -0.7
2019-04-20 17:00:00 22 21.9 22.2 0 7186 19.56 19.19 20.72 25.69 -0.7 -1.3
2019-04-20 18:00:00 21.2 20.7 21.7 0 7020 18.78 18.47 19.03 25.17 -1.6 -2.4
2019-04-20 19:00:00 19.9 19.3 20.6 0 6962 17.93 16.56 18.6 25.01 -2.5 -3.1
2019-04-20 20:00:00 18.5 18 19.2 0 6786 14.33 12.78 16.06 34.66 -1.1 -1.9
2019-04-20 21:00:00 17.3 16.8 17.9 0 6756 10.86 9.21 12.6 45.18 -0.7 -1.2
2019-04-20 22:00:00 16.2 15.8 16.8 0 6756 8.32 7.76 9.16 53.79 -0.5 -0.9
2019-04-20 23:00:00 15.4 15.1 15.7 0 6728 7.28 6.75 7.66 55.57 -1.1 -1.6
2019-04-21 00:00:00 14.6 14.3 15 0 6718 6.72 6.51 6.98 55.96 -1.4 -1.9
2019-04-21 01:00:00 14 13.8 14.3 0 6708 7.47 6.95 8.34 52.11 -1.7 -2.1
2019-04-21 02:00:00 13.6 13.5 13.9 0 6708 9.51 8.69 9.9 43.28 -2.3 -3.4
2019-04-21 03:00:00 13.3 13.2 13.5 0 6708 10.43 9.58 11.14 40.62 -2.5 -2.9
2019-04-21 04:00:00 13.1 13 13.3 0 6708 11.42 11.28 11.52 38.24 -2.4 -2.7
2019-04-21 05:00:00 12.9 12.8 13 0 6698 10.94 10.6 11.35 39.99 -2.2 -2.6
2019-04-21 06:00:00 12.6 12.5 12.9 0 6708 10.28 10 10.64 42.44 -1.9 -2.2
2019-04-21 07:00:00 12.3 12.3 12.5 0 6748 10.8 10.64 10.98 41.74 -1.7 -2
2019-04-21 08:00:00 12.3 12.2 12.4 0 6884 11.96 11.07 13.45 42.32 -0.4 -1.3
2019-04-21 09:00:00 12.9 12.5 13.4 0 7118 13.99 13.41 14.59 41.21 0.8 0.4
2019-04-21 10:00:00 14.2 13.6 15 0 7196 15.1 14.6 15.81 42.65 2.3 1.8
2019-04-21 11:00:00 15.8 15.2 16.7 0 7206 16.24 15.68 16.81 42.6 3.3 2.7
2019-04-21 12:00:00 17.5 16.7 18.4 0 7196 17.93 16.94 19.37 40.89 4.2 3.5
2019-04-21 13:00:00 19.3 18.5 20.2 0 7196 20.35 18.62 22.25 37.12 5 4.1
2019-04-21 14:00:00 21 20.3 21.7 0 7186 22.29 20.21 23.8 34.06 5.4 4.1
2019-04-21 15:00:00 22.1 21.9 22.5 0 7196 23.06 21.8 24.52 31.89 5.1 4
2019-04-21 16:00:00 22.8 22.5 23 0 7186 23.38 22.51 24 30.72 4.8 4.2
2019-04-21 17:00:00 22.8 22.7 23.2 0 7196 23.43 22.9 24.12 28.8 4 3.2
2019-04-21 18:00:00 22.2 21.9 22.7 0 7176 22.58 21.62 23.97 29.77 3.7 2.8